Time;durP1;ratioP1;P1;durP2;ratioP2;P2;SDS_P1;SDS_P2;PMS_P1;PMS_P2;Temp;Humidity;BMP_temperature;BMP_pressure;BME280_temperature;BME280_humidity;BME280_pressure;Samples;Min_cycle;Max_cycle;Signal;HPM_P1;HPM_P2
2021/12/30 00:01:53;;;;;;;6.22;2.50;;;;;;;26.31;35.56;96414.31;5005158;28;20040;-30
2021/12/30 00:04:24;;;;;;;5.30;2.25;;;;;;;26.30;35.59;96407.38;5002665;28;20018;-28
2021/12/30 00:06:50;;;;;;;7.97;2.50;;;;;;;26.31;35.57;96410.84;5010663;28;20037;-31
2021/12/30 00:09:18;;;;;;;6.68;2.15;;;;;;;26.32;35.44;96415.16;5011941;28;20057;-28
2021/12/30 00:11:43;;;;;;;5.88;2.55;;;;;;;26.30;35.54;96417.88;5008257;28;20113;-28
2021/12/30 00:14:09;;;;;;;3.25;2.17;;;;;;;26.30;35.53;96423.13;5001657;28;20033;-27
2021/12/30 00:16:34;;;;;;;6.40;2.40;;;;;;;26.31;35.46;96430.06;5001686;28;20214;-29
2021/12/30 00:19:00;;;;;;;5.60;1.80;;;;;;;26.31;35.54;96432.69;5001070;28;22460;-31
2021/12/30 00:21:25;;;;;;;4.95;2.00;;;;;;;26.30;35.38;96438.88;5001290;28;20083;-30
2021/12/30 00:23:51;;;;;;;5.75;2.25;;;;;;;26.30;35.54;96428.38;5005304;28;20052;-30
2021/12/30 00:26:16;;;;;;;5.85;2.22;;;;;;;26.31;35.53;96445.00;5007250;28;20080;-27
2021/12/30 00:28:42;;;;;;;5.03;2.00;;;;;;;26.31;35.53;96442.38;5009773;28;20033;-28
2021/12/30 00:31:07;;;;;;;2.80;1.70;;;;;;;26.31;35.41;96447.63;5009164;28;20033;-27
2021/12/30 00:33:34;;;;;;;4.38;2.20;;;;;;;26.30;35.47;96454.66;5004245;28;20029;-31
2021/12/30 00:36:03;;;;;;;4.80;2.20;;;;;;;26.31;35.36;96472.09;5001381;28;20030;-30
2021/12/30 00:38:29;;;;;;;4.18;1.70;;;;;;;26.30;35.29;96470.41;5002250;28;20057;-27
2021/12/30 00:40:54;;;;;;;4.57;2.03;;;;;;;26.30;35.34;96466.94;5003075;28;20041;-30
2021/12/30 00:43:20;;;;;;;8.30;1.90;;;;;;;26.30;35.33;96475.66;5005949;28;20502;-28
2021/12/30 00:45:45;;;;;;;3.97;1.65;;;;;;;26.29;35.34;96473.97;5011568;28;20634;-28
2021/12/30 00:48:11;;;;;;;5.88;2.00;;;;;;;26.29;35.33;96473.97;5002578;28;20038;-26
2021/12/30 00:50:37;;;;;;;4.20;2.28;;;;;;;26.29;35.33;96473.13;5002908;28;20029;-28
2021/12/30 00:53:03;;;;;;;3.83;1.60;;;;;;;26.28;35.38;96479.31;5001203;28;20033;-28
2021/12/30 00:55:29;;;;;;;3.67;1.60;;;;;;;26.28;35.33;96482.78;5002643;28;20036;-28
2021/12/30 00:57:54;;;;;;;3.53;1.60;;;;;;;26.28;35.41;96480.16;5003017;28;20383;-27
2021/12/30 01:00:20;;;;;;;4.10;1.67;;;;;;;26.27;35.37;96483.72;5004106;28;20492;-26
2021/12/30 01:02:46;;;;;;;3.47;1.90;;;;;;;26.28;35.33;96482.78;5002729;28;20036;-25
2021/12/30 01:05:11;;;;;;;4.88;1.70;;;;;;;26.27;35.31;96491.59;5001990;28;20108;-29
2021/12/30 01:07:37;;;;;;;4.45;1.67;;;;;;;26.27;35.21;96491.59;5010522;28;20032;-28
2021/12/30 01:10:03;;;;;;;3.88;1.77;;;;;;;26.27;35.25;96496.84;5010097;28;20033;-26
2021/12/30 01:12:29;;;;;;;3.42;1.65;;;;;;;26.26;35.36;96516.19;5001309;28;20919;-28
2021/12/30 01:14:54;;;;;;;3.45;1.58;;;;;;;26.27;35.38;96517.03;5001535;28;20029;-29
2021/12/30 01:17:38;;;;;;;2.70;1.70;;;;;;;26.25;35.32;96519.72;5000812;28;20518;-26
2021/12/30 01:20:03;;;;;;;3.22;1.55;;;;;;;26.28;35.39;96514.31;4988340;28;20022;-29
2021/12/30 01:22:29;;;;;;;4.53;1.58;;;;;;;26.27;35.27;96512.63;5002198;28;20523;-35
2021/12/30 01:24:54;;;;;;;5.43;1.52;;;;;;;26.27;35.16;96523.13;5003387;28;20474;-29
2021/12/30 01:27:20;;;;;;;2.78;1.00;;;;;;;26.26;35.41;96524.06;5002574;28;20041;-25
2021/12/30 01:29:45;;;;;;;2.78;1.60;;;;;;;26.26;35.40;96534.56;5003580;28;20053;-32
2021/12/30 01:32:11;;;;;;;2.72;1.42;;;;;;;26.26;35.34;96537.19;5001107;28;20034;-28
2021/12/30 01:34:37;;;;;;;2.38;1.45;;;;;;;26.27;35.25;96532.81;5003835;28;20029;-31
2021/12/30 01:37:04;;;;;;;2.20;1.33;;;;;;;26.21;35.34;96526.91;5000424;28;20025;-28
2021/12/30 01:39:30;;;;;;;2.38;1.50;;;;;;;26.26;35.24;96531.09;5002156;28;20451;-32
2021/12/30 01:41:55;;;;;;;3.15;1.45;;;;;;;26.26;35.29;96545.09;5003096;28;20022;-28
2021/12/30 01:44:21;;;;;;;1.75;1.27;;;;;;;26.26;35.18;96547.72;5003339;28;20057;-30
2021/12/30 01:46:47;;;;;;;2.88;1.50;;;;;;;26.26;35.27;96550.34;5002288;28;20048;-29
2021/12/30 01:49:12;;;;;;;3.70;1.42;;;;;;;26.27;35.35;96548.56;5003786;28;20037;-28
2021/12/30 01:51:38;;;;;;;2.25;1.00;;;;;;;26.25;35.18;96567.00;4999905;28;20044;-31
2021/12/30 01:54:03;;;;;;;3.35;1.27;;;;;;;26.24;35.26;96565.31;5002570;28;20039;-31
2021/12/30 01:56:29;;;;;;;2.65;1.15;;;;;;;26.25;35.36;96569.63;5001158;28;20032;-30
2021/12/30 01:58:55;;;;;;;3.55;1.48;;;;;;;26.26;35.20;96573.97;5001912;28;20121;-34
2021/12/30 02:01:20;;;;;;;2.65;0.95;;;;;;;26.25;35.30;96580.13;5001035;28;20498;-26
2021/12/30 02:03:46;;;;;;;1.67;0.98;;;;;;;26.25;35.16;96582.75;5001772;28;20055;-27
2021/12/30 02:06:11;;;;;;;5.18;1.60;;;;;;;26.25;35.28;96579.28;5003875;28;20022;-29
2021/12/30 02:08:37;;;;;;;2.85;1.45;;;;;;;26.25;35.29;96597.66;5009250;28;20033;-28
2021/12/30 02:11:02;;;;;;;2.63;1.25;;;;;;;26.24;35.35;96596.84;5011463;28;20036;-27
2021/12/30 02:13:28;;;;;;;3.65;1.05;;;;;;;26.23;35.34;96595.13;5011214;28;20028;-29
2021/12/30 02:16:00;;;;;;;2.67;1.25;;;;;;;26.23;35.13;96587.25;5008355;28;20025;-32
2021/12/30 02:18:25;;;;;;;3.08;1.20;;;;;;;26.23;35.30;96600.38;5010671;28;20094;-30
2021/12/30 02:20:55;;;;;;;3.75;1.00;;;;;;;26.22;35.20;96604.81;5008990;28;20461;-29
2021/12/30 02:23:23;;;;;;;2.47;1.00;;;;;;;26.23;35.18;96611.75;5009131;28;20057;-28
2021/12/30 02:25:49;;;;;;;2.92;1.27;;;;;;;26.23;35.19;96616.13;5008439;28;20021;-30
2021/12/30 02:28:15;;;;;;;2.92;1.00;;;;;;;26.23;35.26;96608.25;5008409;28;20022;-26
2021/12/30 02:30:41;;;;;;;3.05;1.30;;;;;;;26.23;35.20;96616.13;5010736;28;20033;-29
2021/12/30 02:33:07;;;;;;;2.75;1.17;;;;;;;26.21;35.15;96613.59;5007951;28;20034;-29
2021/12/30 02:35:32;;;;;;;3.53;1.00;;;;;;;26.21;35.33;96618.03;5010140;28;20035;-29
2021/12/30 02:37:58;;;;;;;3.38;1.00;;;;;;;26.21;35.27;96618.03;5012029;28;20041;-26
2021/12/30 02:40:38;;;;;;;3.15;1.20;;;;;;;26.21;35.32;96618.03;5007211;28;20036;-29
2021/12/30 02:43:06;;;;;;;1.95;1.25;;;;;;;26.22;35.29;96619.72;5008079;28;20037;-30
2021/12/30 02:45:32;;;;;;;2.80;1.05;;;;;;;26.20;35.26;96626.84;5007667;28;20030;-28
2021/12/30 02:47:57;;;;;;;2.80;1.17;;;;;;;26.22;35.22;96624.97;5008186;28;20025;-27
2021/12/30 02:50:22;;;;;;;1.83;1.02;;;;;;;26.20;35.12;96625.03;5005773;28;20041;-28
2021/12/30 02:52:48;;;;;;;2.25;0.90;;;;;;;26.19;35.30;96618.09;5007525;28;20021;-27
2021/12/30 02:55:13;;;;;;;1.70;0.85;;;;;;;26.20;35.18;96632.09;5008979;28;20463;-28
2021/12/30 02:57:39;;;;;;;1.42;1.00;;;;;;;26.19;35.45;96633.00;5010035;28;20022;-30
2021/12/30 03:00:05;;;;;;;2.42;0.75;;;;;;;26.20;35.10;96632.09;5009684;28;20653;-30
2021/12/30 03:02:31;;;;;;;1.83;1.00;;;;;;;26.19;35.12;96639.13;5011924;28;20682;-28
2021/12/30 03:04:56;;;;;;;2.85;0.90;;;;;;;26.20;35.10;96639.97;5009895;28;20021;-27
2021/12/30 03:07:22;;;;;;;1.85;1.00;;;;;;;26.19;35.15;96643.50;5012000;28;20038;-25
2021/12/30 03:09:48;;;;;;;2.92;0.65;;;;;;;26.19;35.11;96646.13;5012610;28;20037;-27
2021/12/30 03:12:14;;;;;;;2.40;0.82;;;;;;;26.19;35.21;96648.75;5012686;28;20034;-28
2021/12/30 03:14:40;;;;;;;2.47;0.82;;;;;;;26.19;35.34;96646.13;5011245;28;20045;-29
2021/12/30 03:17:06;;;;;;;1.17;0.80;;;;;;;26.14;35.28;96640.31;5011447;28;20049;-30
2021/12/30 03:19:32;;;;;;;3.63;1.17;;;;;;;26.19;35.15;96648.75;5011596;28;20064;-30
2021/12/30 03:21:57;;;;;;;1.63;1.00;;;;;;;26.17;35.16;96654.13;5009280;28;20845;-30
2021/12/30 03:24:23;;;;;;;1.52;1.02;;;;;;;26.17;35.21;96648.88;5010179;28;20036;-27
2021/12/30 03:26:48;;;;;;;1.73;0.90;;;;;;;26.17;35.34;96659.38;5011433;28;20512;-26
2021/12/30 03:30:13;;;;;;;1.05;0.73;;;;;;;-148.56;100.00;61375.16;5012736;28;20038;-27
2021/12/30 03:33:37;;;;;;;1.05;0.73;;;;;;;-148.56;100.00;61375.16;5010371;28;20048;-28
2021/12/30 03:37:01;;;;;;;5.57;1.00;;;;;;;-148.56;100.00;61375.16;5011687;28;20037;-28
2021/12/30 03:39:27;;;;;;;1.17;0.68;;;;;;;26.12;35.29;96671.06;5011699;28;20025;-28
2021/12/30 03:41:52;;;;;;;1.38;0.95;;;;;;;26.12;35.30;96676.31;5009326;28;20029;-29
2021/12/30 03:44:17;;;;;;;1.33;0.80;;;;;;;26.13;35.41;96685.88;5013713;28;20048;-28
2021/12/30 03:46:43;;;;;;;1.75;0.90;;;;;;;26.14;35.35;96690.19;5014928;28;20266;-25
2021/12/30 03:49:09;;;;;;;4.55;0.85;;;;;;;26.13;35.40;96681.50;5011454;28;20026;-29
2021/12/30 03:51:39;;;;;;;1.00;0.57;;;;;;;26.14;35.38;96682.31;5010599;28;20105;-29
2021/12/30 03:54:04;;;;;;;1.45;0.68;;;;;;;26.15;35.34;96686.63;5013276;28;20025;-31
2021/12/30 03:56:30;;;;;;;0.70;0.60;;;;;;;26.14;35.41;96690.19;5012428;28;20034;-29
2021/12/30 03:58:56;;;;;;;0.60;0.50;;;;;;;26.15;35.25;96691.88;5011155;28;20666;-28
2021/12/30 04:01:22;;;;;;;1.33;0.52;;;;;;;26.15;35.15;96691.88;5012098;28;20119;-28
2021/12/30 04:03:48;;;;;;;0.80;0.50;;;;;;;26.14;35.24;96698.09;5011507;28;20451;-29
2021/12/30 04:06:14;;;;;;;2.30;0.90;;;;;;;26.15;35.33;96702.41;5009037;28;20036;-28
2021/12/30 04:08:39;;;;;;;1.35;0.75;;;;;;;26.14;35.39;96700.72;5010717;28;20030;-29
2021/12/30 04:11:04;;;;;;;1.20;0.65;;;;;;;26.14;35.38;96706.81;5008024;28;20254;-29
2021/12/30 04:13:30;;;;;;;1.40;0.82;;;;;;;26.14;35.22;96703.34;4991984;28;20032;-29
2021/12/30 04:15:55;;;;;;;0.93;0.50;;;;;;;26.14;35.34;96705.97;5005881;28;20120;-28
2021/12/30 04:18:21;;;;;;;1.02;0.63;;;;;;;26.15;35.27;96707.66;5005762;28;20052;-28
2021/12/30 04:20:46;;;;;;;1.15;0.60;;;;;;;26.14;35.39;96713.84;5003045;28;20037;-29
2021/12/30 04:23:12;;;;;;;1.20;0.75;;;;;;;26.14;35.25;96708.59;5004739;28;20029;-29
2021/12/30 04:25:38;;;;;;;0.63;0.50;;;;;;;26.14;35.21;96712.06;5002507;28;20029;-25
2021/12/30 04:28:03;;;;;;;0.73;0.57;;;;;;;26.14;35.26;96713.84;5004667;28;20036;-27
2021/12/30 04:30:29;;;;;;;0.80;0.80;;;;;;;26.14;35.25;96722.56;5004050;28;20033;-27
2021/12/30 04:32:54;;;;;;;2.60;0.80;;;;;;;26.14;35.29;96729.59;5003865;28;20033;-29
2021/12/30 04:35:20;;;;;;;1.17;0.68;;;;;;;26.14;35.26;96721.72;5003451;28;22176;-24
2021/12/30 04:37:45;;;;;;;1.58;0.60;;;;;;;26.14;35.22;96726.97;5004838;28;20033;-28
2021/12/30 04:40:11;;;;;;;1.73;0.60;;;;;;;26.13;35.43;96730.53;5002569;28;20021;-29
2021/12/30 04:42:37;;;;;;;0.60;0.50;;;;;;;26.14;35.35;96732.22;5000866;28;20033;-29
2021/12/30 04:45:03;;;;;;;1.52;0.60;;;;;;;26.14;35.39;96737.47;5003585;28;20040;-28
2021/12/30 04:47:29;;;;;;;1.45;0.63;;;;;;;26.12;35.25;96736.72;5002207;28;20026;-27
2021/12/30 04:49:57;;;;;;;1.35;0.60;;;;;;;26.13;35.39;96735.78;5002832;28;20545;-30
2021/12/30 04:52:22;;;;;;;1.25;0.47;;;;;;;26.13;35.24;96738.41;5001278;28;20025;-30
2021/12/30 04:54:49;;;;;;;1.48;0.40;;;;;;;26.13;35.29;96741.03;5004592;28;20947;-28
2021/12/30 04:57:14;;;;;;;2.83;0.70;;;;;;;26.13;35.39;96741.03;5002987;28;20408;-30
2021/12/30 04:59:40;;;;;;;1.05;0.65;;;;;;;26.12;35.29;96741.97;5004879;28;20033;-28
2021/12/30 05:02:05;;;;;;;0.82;0.50;;;;;;;26.12;35.20;96740.19;5002315;28;20041;-27
2021/12/30 05:04:30;;;;;;;0.90;0.50;;;;;;;26.12;35.34;96734.09;5012776;28;20036;-31
2021/12/30 05:06:56;;;;;;;1.48;0.75;;;;;;;26.14;35.39;96737.47;5002570;28;20557;-29
2021/12/30 05:11:49;;;;;;;1.38;0.70;;;;;;;26.13;35.37;96741.03;4947742;22;20049;-62
2021/12/30 05:14:14;;;;;;;0.70;0.47;;;;;;;26.13;35.34;96743.66;4985606;28;20060;-61
2021/12/30 05:16:40;;;;;;;0.70;0.50;;;;;;;26.13;35.32;96751.56;5007265;28;20099;-64
2021/12/30 05:19:05;;;;;;;1.92;0.70;;;;;;;26.13;35.45;96751.56;5007398;28;20038;-62
2021/12/30 05:21:31;;;;;;;0.47;0.30;;;;;;;26.12;35.41;96748.06;5006910;28;20029;-59
2021/12/30 05:23:56;;;;;;;0.85;0.40;;;;;;;26.12;35.41;96749.84;5004160;28;20037;-59
2021/12/30 05:26:27;;;;;;;0.45;0.35;;;;;;;26.08;35.50;96755.28;5000456;28;20034;-59
2021/12/30 05:28:52;;;;;;;0.57;0.50;;;;;;;26.13;35.27;96756.81;4991435;28;20022;-60
2021/12/30 05:31:18;;;;;;;0.50;0.43;;;;;;;26.11;35.38;96754.25;5005700;28;20065;-58
2021/12/30 05:33:43;;;;;;;1.48;0.40;;;;;;;26.12;35.38;96765.63;5008075;28;20037;-59
2021/12/30 05:36:08;;;;;;;0.98;0.40;;;;;;;26.12;35.31;96761.19;5005412;28;20034;-64
2021/12/30 05:38:34;;;;;;;0.95;0.50;;;;;;;26.12;35.32;96763.81;5009557;28;20025;-57
2021/12/30 05:40:59;;;;;;;0.75;0.43;;;;;;;26.13;35.42;96762.06;5003390;28;20041;-59
2021/12/30 05:43:25;;;;;;;0.80;0.50;;;;;;;26.11;35.30;96770.00;5004078;28;20033;-59
2021/12/30 05:45:50;;;;;;;0.65;0.40;;;;;;;26.10;35.24;96769.16;5004819;28;20034;-58
2021/12/30 05:48:15;;;;;;;0.98;0.50;;;;;;;26.10;35.27;96773.56;5008931;28;20393;-58
2021/12/30 05:50:41;;;;;;;0.68;0.40;;;;;;;26.12;35.43;96776.13;5003830;28;20600;-59
2021/12/30 05:53:06;;;;;;;0.75;0.40;;;;;;;26.09;35.34;96775.34;5007744;28;20044;-58
2021/12/30 05:55:32;;;;;;;2.17;0.50;;;;;;;26.08;35.45;96773.66;5006231;28;20033;-60
2021/12/30 05:57:57;;;;;;;0.40;0.30;;;;;;;26.09;35.36;96783.22;5006847;28;20090;-59
2021/12/30 06:00:24;;;;;;;0.75;0.30;;;;;;;26.10;35.38;96790.16;4991907;28;20065;-58
2021/12/30 06:02:50;;;;;;;0.30;0.20;;;;;;;26.09;35.39;96788.47;5012442;28;20025;-61
2021/12/30 06:05:16;;;;;;;0.60;0.20;;;;;;;26.08;35.44;96794.66;5020323;28;20083;-59
2021/12/30 06:07:41;;;;;;;0.75;0.30;;;;;;;26.09;35.37;96791.09;5031492;28;20033;-59
2021/12/30 06:10:07;;;;;;;0.77;0.32;;;;;;;26.10;35.34;96794.59;5017177;28;20025;-58
2021/12/30 06:12:33;;;;;;;1.60;0.55;;;;;;;26.10;35.33;96805.91;5012304;28;20096;-59
2021/12/30 06:14:58;;;;;;;0.55;0.40;;;;;;;26.09;35.41;96803.41;5011053;28;20575;-58
2021/12/30 06:17:24;;;;;;;0.45;0.40;;;;;;;26.08;35.26;96807.78;5016517;28;20040;-59
2021/12/30 06:19:49;;;;;;;0.47;0.30;;;;;;;26.09;35.49;96819.16;5004936;28;20083;-60
2021/12/30 06:22:15;;;;;;;0.30;0.30;;;;;;;26.08;35.52;96801.69;5010824;28;20041;-60
2021/12/30 06:24:40;;;;;;;0.77;0.40;;;;;;;26.09;35.31;96808.66;5011814;28;20021;-57
2021/12/30 06:27:06;;;;;;;0.43;0.25;;;;;;;26.08;35.39;96813.06;5012079;28;20029;-59
2021/12/30 06:29:31;;;;;;;0.60;0.22;;;;;;;26.07;35.42;96811.34;5013233;28;20108;-59
2021/12/30 06:31:57;;;;;;;0.35;0.30;;;;;;;26.08;35.35;96813.06;4997128;28;20056;-58
2021/12/30 06:34:22;;;;;;;0.75;0.25;;;;;;;26.08;35.33;96817.44;5019272;28;20030;-58
2021/12/30 06:36:48;;;;;;;0.50;0.30;;;;;;;26.08;35.50;96818.31;5009252;28;20033;-58
2021/12/30 06:39:13;;;;;;;0.20;0.20;;;;;;;26.07;35.44;96826.25;5012960;28;20145;-58
2021/12/30 06:41:39;;;;;;;0.63;0.35;;;;;;;26.06;35.53;96833.31;5011166;28;20036;-58
2021/12/30 06:44:04;;;;;;;3.90;1.05;;;;;;;26.08;35.72;96843.69;5011862;28;20594;-59
2021/12/30 06:46:29;;;;;;;1.65;0.60;;;;;;;26.06;35.93;96838.56;5008130;28;20025;-58
2021/12/30 06:48:55;;;;;;;2.35;0.73;;;;;;;26.06;35.96;96849.06;5011338;28;20030;-58
2021/12/30 06:51:26;;;;;;;0.68;0.40;;;;;;;26.07;35.87;96849.88;5006726;28;20044;-60
2021/12/30 06:53:54;;;;;;;1.00;0.35;;;;;;;26.05;35.69;96849.97;5007550;28;20033;-59
2021/12/30 06:56:20;;;;;;;4.00;0.40;;;;;;;26.02;35.73;96849.28;5009990;28;20025;-60
2021/12/30 06:58:45;;;;;;;0.70;0.30;;;;;;;26.05;35.76;96865.72;5008107;28;20029;-58
2021/12/30 07:01:11;;;;;;;1.58;0.35;;;;;;;26.05;35.74;96863.09;5008126;28;20037;-57
2021/12/30 07:03:36;;;;;;;1.05;0.30;;;;;;;26.05;35.57;96870.97;4988355;28;20089;-59
2021/12/30 07:06:01;;;;;;;1.23;0.40;;;;;;;26.05;35.77;96872.78;5007611;28;20030;-59
2021/12/30 07:08:27;;;;;;;0.95;0.50;;;;;;;26.05;35.52;96876.22;5006334;28;20873;-60
2021/12/30 07:10:52;;;;;;;1.23;0.40;;;;;;;26.05;35.70;96878.03;5006386;28;20033;-57
2021/12/30 07:13:18;;;;;;;1.48;0.40;;;;;;;26.04;35.63;96885.03;5005487;28;20065;-57
2021/12/30 07:15:43;;;;;;;1.20;0.20;;;;;;;26.05;35.47;96885.91;4986342;28;20032;-58
2021/12/30 07:18:09;;;;;;;1.10;0.30;;;;;;;26.05;35.55;96886.72;5007578;28;20037;-58
2021/12/30 07:20:34;;;;;;;1.02;0.50;;;;;;;26.05;35.66;96888.53;4987897;28;20029;-57
2021/12/30 07:22:59;;;;;;;3.60;0.40;;;;;;;26.05;35.66;96891.97;5008351;28;20563;-58
2021/12/30 07:25:25;;;;;;;1.42;0.30;;;;;;;26.05;35.64;96894.59;5004382;28;20037;-58
2021/12/30 07:27:52;;;;;;;3.40;0.80;;;;;;;26.05;35.69;96891.97;5000561;28;20036;-59
2021/12/30 07:30:18;;;;;;;3.38;0.65;;;;;;;26.04;35.67;96895.53;5004006;28;20034;-58
2021/12/30 07:32:43;;;;;;;7.30;1.20;;;;;;;26.05;35.79;96897.25;5002877;28;20049;-60
2021/12/30 07:35:08;;;;;;;4.50;0.93;;;;;;;26.05;35.58;96902.50;5005892;28;20040;-59
2021/12/30 07:37:34;;;;;;;7.03;1.00;;;;;;;26.05;35.77;96913.00;5007147;28;20037;-59
2021/12/30 07:39:59;;;;;;;2.72;0.60;;;;;;;26.04;35.79;96911.31;5007123;28;20511;-59
2021/12/30 07:42:25;;;;;;;2.47;1.10;;;;;;;26.04;35.90;96903.44;5004182;28;20033;-59
2021/12/30 07:44:50;;;;;;;2.25;0.98;;;;;;;26.05;35.86;96905.13;4986541;28;20028;-60
2021/12/30 07:47:16;;;;;;;7.45;1.20;;;;;;;26.05;35.79;96907.75;4998557;28;20499;-59
2021/12/30 07:49:41;;;;;;;15.38;1.38;;;;;;;26.05;35.99;96910.38;5005293;28;20499;-59
2021/12/30 07:52:06;;;;;;;8.27;0.80;;;;;;;26.03;35.98;96907.00;5003467;28;20034;-58
2021/12/30 07:54:32;;;;;;;3.17;0.77;;;;;;;26.05;35.81;96918.25;5006538;28;20029;-60
2021/12/30 07:56:58;;;;;;;5.53;1.20;;;;;;;26.04;35.92;96924.44;5002374;28;20033;-60
2021/12/30 07:59:23;;;;;;;5.20;1.20;;;;;;;26.03;35.87;96920.13;4995803;28;20731;-58
2021/12/30 08:01:49;;;;;;;6.20;1.38;;;;;;;26.03;35.83;96914.88;5003383;28;20486;-61
2021/12/30 08:04:14;;;;;;;4.78;1.80;;;;;;;26.03;35.89;96914.00;5004264;28;20415;-60
2021/12/30 08:06:39;;;;;;;3.97;1.23;;;;;;;26.02;35.79;96913.19;5005188;28;20018;-59
2021/12/30 08:09:06;;;;;;;6.47;1.67;;;;;;;26.03;35.96;96925.38;5002084;28;20048;-60
2021/12/30 08:11:32;;;;;;;5.07;1.55;;;;;;;26.04;35.84;96923.56;5005294;28;20038;-60
2021/12/30 08:13:59;;;;;;;5.13;1.38;;;;;;;26.04;35.82;96927.06;4989588;28;20038;-59
2021/12/30 08:16:25;;;;;;;4.53;1.80;;;;;;;26.05;35.80;96931.38;5008981;28;20034;-59
2021/12/30 08:18:51;;;;;;;4.10;1.33;;;;;;;26.04;36.00;96929.69;5004952;28;20446;-59
2021/12/30 08:21:16;;;;;;;3.85;1.55;;;;;;;26.04;35.92;96927.06;5003829;28;20025;-60
2021/12/30 08:23:41;;;;;;;2.80;1.55;;;;;;;26.05;35.97;96931.38;5002060;28;20109;-58
2021/12/30 08:26:07;;;;;;;4.72;1.90;;;;;;;26.06;35.73;96933.09;5007846;28;20041;-60
2021/12/30 08:28:32;;;;;;;3.00;0.98;;;;;;;26.07;35.86;96931.31;5009007;28;20022;-58
2021/12/30 08:30:58;;;;;;;2.25;1.10;;;;;;;26.04;35.82;96934.94;5004276;28;20756;-60
2021/12/30 08:33:24;;;;;;;4.43;1.58;;;;;;;26.07;35.78;96937.41;5002633;28;20863;-59
2021/12/30 08:35:49;;;;;;;4.95;1.50;;;;;;;26.07;35.76;96937.41;5004705;28;20045;-58
2021/12/30 08:38:16;;;;;;;4.85;1.48;;;;;;;26.08;35.73;96940.88;5005901;28;20546;-58
2021/12/30 08:40:42;;;;;;;2.53;1.00;;;;;;;26.08;35.73;96943.50;5005700;28;20150;-60
2021/12/30 08:43:07;;;;;;;3.83;1.60;;;;;;;26.08;35.67;96944.34;5006619;28;20153;-58
2021/12/30 08:45:34;;;;;;;7.20;1.50;;;;;;;26.08;35.69;96941.72;5006938;28;20053;-60
2021/12/30 08:48:00;;;;;;;3.28;1.17;;;;;;;26.09;35.83;96939.97;5015379;28;20596;-58
2021/12/30 08:50:25;;;;;;;2.20;1.10;;;;;;;26.09;35.80;96945.22;5002202;28;20033;-59
2021/12/30 08:52:51;;;;;;;3.33;1.30;;;;;;;26.09;35.80;96939.97;5004273;28;20037;-58
2021/12/30 08:55:16;;;;;;;8.95;1.50;;;;;;;26.10;35.92;96942.47;5001953;28;20030;-58
2021/12/30 08:57:42;;;;;;;4.03;1.30;;;;;;;26.10;35.87;96942.47;4989987;28;20078;-60
2021/12/30 09:00:12;;;;;;;3.55;1.48;;;;;;;26.12;35.98;96937.16;5002162;28;20025;-59
2021/12/30 09:02:38;;;;;;;8.02;1.17;;;;;;;26.13;36.05;96948.53;5007305;28;20083;-59
2021/12/30 09:05:04;;;;;;;5.13;1.50;;;;;;;26.14;36.01;96947.59;5003605;28;20037;-59
2021/12/30 09:07:29;;;;;;;2.55;1.23;;;;;;;26.14;35.92;96944.97;5007486;28;20091;-59
2021/12/30 09:09:55;;;;;;;5.65;1.88;;;;;;;26.16;36.06;96943.13;5009206;28;21077;-60
2021/12/30 09:12:22;;;;;;;3.97;1.60;;;;;;;26.17;35.92;96944.81;5000570;28;20033;-59
2021/12/30 09:14:48;;;;;;;3.67;1.40;;;;;;;26.17;35.88;96942.19;5006345;28;20163;-59
2021/12/30 09:17:13;;;;;;;3.47;1.48;;;;;;;26.19;36.00;96948.19;5007392;28;20021;-59
2021/12/30 09:19:38;;;;;;;4.97;1.25;;;;;;;26.20;36.00;96948.13;5001356;28;20031;-59
2021/12/30 09:22:04;;;;;;;5.25;1.27;;;;;;;26.21;36.04;96943.72;5003250;28;20033;-61
2021/12/30 09:24:29;;;;;;;1.88;1.10;;;;;;;26.22;36.07;96940.16;5002658;28;20061;-59
2021/12/30 09:26:55;;;;;;;5.65;1.30;;;;;;;26.23;36.05;96941.84;5002882;28;20068;-59
2021/12/30 09:29:20;;;;;;;2.53;1.15;;;;;;;26.25;36.07;96947.88;5003837;28;20018;-58
2021/12/30 09:31:48;;;;;;;3.17;1.35;;;;;;;26.26;36.15;96949.59;5012304;28;20037;-60
2021/12/30 09:34:13;;;;;;;10.15;1.58;;;;;;;26.26;35.62;96944.34;5005929;28;20510;-58
2021/12/30 09:36:39;;;;;;;1.35;0.85;;;;;;;26.24;35.49;96954.06;5002932;28;20025;-59
2021/12/30 09:39:07;;;;;;;1.58;0.45;;;;;;;26.18;35.26;96957.00;4992057;28;20213;-60
2021/12/30 09:41:33;;;;;;;2.75;0.50;;;;;;;26.05;34.98;96955.00;5004314;28;20045;-59
2021/12/30 09:43:59;;;;;;;2.53;0.90;;;;;;;25.96;35.26;96955.50;5001698;28;20120;-59
2021/12/30 09:46:24;;;;;;;2.53;1.00;;;;;;;25.87;35.39;96956.81;5000801;28;20315;-60
2021/12/30 09:48:50;;;;;;;2.25;1.20;;;;;;;25.83;35.74;96944.78;4994565;28;20032;-59
2021/12/30 09:51:15;;;;;;;5.20;1.20;;;;;;;25.80;35.65;96945.78;5002275;28;20065;-58
2021/12/30 09:53:40;;;;;;;2.65;1.00;;;;;;;25.79;35.81;96949.34;5002711;28;20042;-59
2021/12/30 09:56:06;;;;;;;3.15;1.00;;;;;;;25.80;35.87;96951.03;5002478;28;20045;-58
2021/12/30 09:58:31;;;;;;;3.63;1.10;;;;;;;25.79;35.89;96944.09;5003785;28;20030;-57
2021/12/30 10:00:57;;;;;;;2.80;1.10;;;;;;;25.81;35.84;96942.22;5003569;28;20037;-60
2021/12/30 10:03:22;;;;;;;1.83;1.05;;;;;;;25.83;35.97;96945.59;5001054;28;20037;-59
2021/12/30 10:05:48;;;;;;;2.75;0.98;;;;;;;25.85;35.84;96937.66;4997709;28;20807;-61
2021/12/30 10:08:18;;;;;;;2.25;1.05;;;;;;;25.87;36.03;96943.69;4996699;28;20036;-59
2021/12/30 10:10:45;;;;;;;2.00;1.00;;;;;;;25.88;35.85;96947.16;4998664;28;20030;-60
2021/12/30 10:13:15;;;;;;;3.90;0.90;;;;;;;25.90;35.90;96947.94;5013253;28;20037;-60
2021/12/30 10:15:41;;;;;;;2.15;0.85;;;;;;;25.93;35.99;96955.66;4999907;28;20037;-59
2021/12/30 10:18:06;;;;;;;2.25;1.13;;;;;;;25.94;35.95;96954.72;5002058;28;20033;-59
2021/12/30 10:20:32;;;;;;;3.17;1.10;;;;;;;25.95;36.20;96952.03;4999937;28;20037;-58
2021/12/30 10:23:09;;;;;;;3.13;0.90;;;;;;;25.96;35.99;96951.09;5002283;28;20034;-59
2021/12/30 10:25:39;;;;;;;1.83;0.90;;;;;;;25.98;35.94;96958.03;5001568;28;20518;-59
2021/12/30 10:28:20;;;;;;;1.75;0.90;;;;;;;25.99;36.07;96955.34;5004731;28;20152;-58
2021/12/30 10:30:45;;;;;;;3.50;0.93;;;;;;;26.01;36.16;96963.16;5010461;28;20038;-60
2021/12/30 10:33:11;;;;;;;3.60;1.00;;;;;;;26.02;36.02;96964.84;5007517;28;20048;-58
2021/12/30 10:35:37;;;;;;;6.10;0.98;;;;;;;26.03;35.99;96967.38;4992808;28;21083;-59
2021/12/30 10:38:04;;;;;;;3.00;1.05;;;;;;;26.04;36.24;96963.81;4993547;28;20851;-61
2021/12/30 10:40:31;;;;;;;7.60;1.50;;;;;;;26.06;36.10;96977.75;4962859;28;20147;-60
2021/12/30 10:46:09;;;;;;;9.25;2.30;;;;;;;26.09;36.11;96977.56;4962057;28;20088;-59
2021/12/30 10:48:50;;;;;;;14.68;2.65;;;;;;;26.09;36.13;96974.94;4962143;28;20061;-58
2021/12/30 10:51:28;;;;;;;10.70;3.03;;;;;;;26.12;36.07;96970.47;4979979;28;20045;-59
2021/12/30 10:53:54;;;;;;;12.48;3.15;;;;;;;26.12;36.34;96976.56;5005264;28;20275;-60
2021/12/30 10:56:39;;;;;;;11.90;3.33;;;;;;;26.14;36.29;96973.84;5003931;28;20034;-59
2021/12/30 10:59:22;;;;;;;12.45;2.97;;;;;;;26.14;36.26;96965.97;5003973;28;20630;-60
2021/12/30 11:01:52;;;;;;;12.73;3.15;;;;;;;26.15;36.25;96965.91;5005734;28;20120;-58
2021/12/30 11:04:18;;;;;;;12.38;2.97;;;;;;;26.14;36.14;96963.34;4996285;28;20029;-59
2021/12/30 11:06:43;;;;;;;13.82;3.15;;;;;;;26.16;36.28;96967.59;5014279;28;20076;-59
2021/12/30 11:09:17;;;;;;;13.77;3.20;;;;;;;26.16;36.19;96951.00;5000350;28;20476;-60
2021/12/30 11:11:45;;;;;;;9.70;3.10;;;;;;;26.17;36.14;96960.56;4999580;28;20061;-60
2021/12/30 11:14:13;;;;;;;9.65;3.10;;;;;;;26.20;36.23;96968.31;4998941;28;20143;-59
2021/12/30 11:16:51;;;;;;;11.90;3.00;;;;;;;26.21;36.24;96975.25;4996828;28;20045;-60
2021/12/30 11:19:17;;;;;;;15.15;3.58;;;;;;;26.21;36.19;96968.19;5000160;28;20138;-59
2021/12/30 11:21:44;;;;;;;10.45;3.25;;;;;;;26.22;36.26;96967.28;4999453;28;20021;-59
2021/12/30 11:24:09;;;;;;;7.03;2.67;;;;;;;26.23;36.16;96973.38;5002478;28;20400;-60
2021/12/30 11:26:35;;;;;;;9.73;2.97;;;;;;;26.24;36.33;96972.47;4983240;28;20036;-61
2021/12/30 11:29:01;;;;;;;9.80;2.63;;;;;;;26.25;36.33;96976.78;5005058;28;20032;-60
2021/12/30 11:31:29;;;;;;;9.13;2.70;;;;;;;26.26;36.21;96973.25;5005792;28;20021;-58
2021/12/30 11:33:54;;;;;;;9.85;2.80;;;;;;;26.27;36.20;96969.69;5008102;28;20030;-59
2021/12/30 11:36:19;;;;;;;9.93;2.42;;;;;;;26.28;36.32;96965.28;5008347;28;20820;-60